sensor_id;sensor_type;location;lat;lon;timestamp;P1;durP1;ratioP1;P2;durP2;ratioP2
7460;SDS011;6757;52.258;12.840;2023-07-29T00:01:37;6.32;;;2.60;;
7460;SDS011;6757;52.258;12.840;2023-07-29T00:04:06;7.32;;;2.88;;
7460;SDS011;6757;52.258;12.840;2023-07-29T00:06:34;5.63;;;2.20;;
7460;SDS011;6757;52.258;12.840;2023-07-29T00:09:02;5.85;;;2.70;;
7460;SDS011;6757;52.258;12.840;2023-07-29T00:11:29;3.50;;;2.20;;
7460;SDS011;6757;52.258;12.840;2023-07-29T00:13:58;5.18;;;2.15;;
7460;SDS011;6757;52.258;12.840;2023-07-29T00:16:26;5.20;;;2.10;;
7460;SDS011;6757;52.258;12.840;2023-07-29T00:18:53;4.57;;;2.03;;
7460;SDS011;6757;52.258;12.840;2023-07-29T00:21:20;6.68;;;2.70;;
7460;SDS011;6757;52.258;12.840;2023-07-29T00:23:47;5.55;;;2.35;;
7460;SDS011;6757;52.258;12.840;2023-07-29T00:26:15;5.22;;;2.28;;
7460;SDS011;6757;52.258;12.840;2023-07-29T00:28:42;5.65;;;2.35;;
7460;SDS011;6757;52.258;12.840;2023-07-29T00:31:09;6.18;;;2.38;;
7460;SDS011;6757;52.258;12.840;2023-07-29T00:33:36;6.65;;;2.30;;
7460;SDS011;6757;52.258;12.840;2023-07-29T00:36:04;4.72;;;2.45;;
7460;SDS011;6757;52.258;12.840;2023-07-29T00:38:31;5.70;;;2.40;;
7460;SDS011;6757;52.258;12.840;2023-07-29T00:40:58;6.97;;;2.30;;
7460;SDS011;6757;52.258;12.840;2023-07-29T00:43:27;4.65;;;2.17;;
7460;SDS011;6757;52.258;12.840;2023-07-29T00:45:55;5.85;;;2.30;;
7460;SDS011;6757;52.258;12.840;2023-07-29T00:48:22;5.72;;;2.55;;
7460;SDS011;6757;52.258;12.840;2023-07-29T00:50:50;5.78;;;2.28;;
7460;SDS011;6757;52.258;12.840;2023-07-29T00:53:17;7.45;;;2.75;;
7460;SDS011;6757;52.258;12.840;2023-07-29T00:55:44;4.93;;;2.13;;
7460;SDS011;6757;52.258;12.840;2023-07-29T00:58:12;5.38;;;2.38;;
7460;SDS011;6757;52.258;12.840;2023-07-29T01:00:40;5.13;;;2.20;;
7460;SDS011;6757;52.258;12.840;2023-07-29T01:03:07;5.95;;;2.38;;
7460;SDS011;6757;52.258;12.840;2023-07-29T01:05:36;5.75;;;2.80;;
7460;SDS011;6757;52.258;12.840;2023-07-29T01:08:13;5.50;;;2.00;;
7460;SDS011;6757;52.258;12.840;2023-07-29T01:10:51;4.95;;;2.08;;
7460;SDS011;6757;52.258;12.840;2023-07-29T01:13:26;6.28;;;2.35;;
7460;SDS011;6757;52.258;12.840;2023-07-29T01:16:05;7.38;;;2.60;;
7460;SDS011;6757;52.258;12.840;2023-07-29T01:21:08;4.75;;;2.30;;
7460;SDS011;6757;52.258;12.840;2023-07-29T01:23:38;6.32;;;2.70;;
7460;SDS011;6757;52.258;12.840;2023-07-29T01:26:05;7.22;;;2.92;;
7460;SDS011;6757;52.258;12.840;2023-07-29T01:28:32;4.28;;;2.50;;
7460;SDS011;6757;52.258;12.840;2023-07-29T01:31:01;5.50;;;2.20;;
7460;SDS011;6757;52.258;12.840;2023-07-29T01:33:35;5.00;;;2.13;;
7460;SDS011;6757;52.258;12.840;2023-07-29T01:36:07;4.32;;;2.22;;
7460;SDS011;6757;52.258;12.840;2023-07-29T01:38:41;4.20;;;2.17;;
7460;SDS011;6757;52.258;12.840;2023-07-29T01:41:10;5.55;;;2.53;;
7460;SDS011;6757;52.258;12.840;2023-07-29T01:43:38;4.80;;;2.10;;
7460;SDS011;6757;52.258;12.840;2023-07-29T01:46:09;6.00;;;2.30;;
7460;SDS011;6757;52.258;12.840;2023-07-29T01:48:36;5.25;;;2.70;;
7460;SDS011;6757;52.258;12.840;2023-07-29T01:51:04;5.72;;;2.40;;
7460;SDS011;6757;52.258;12.840;2023-07-29T01:53:31;4.97;;;2.13;;
7460;SDS011;6757;52.258;12.840;2023-07-29T01:55:59;4.22;;;2.22;;
7460;SDS011;6757;52.258;12.840;2023-07-29T01:58:26;3.10;;;1.77;;
7460;SDS011;6757;52.258;12.840;2023-07-29T02:00:53;6.93;;;2.60;;
7460;SDS011;6757;52.258;12.840;2023-07-29T02:03:20;4.35;;;2.00;;
7460;SDS011;6757;52.258;12.840;2023-07-29T02:05:47;4.45;;;2.28;;
7460;SDS011;6757;52.258;12.840;2023-07-29T02:08:14;3.88;;;2.10;;
7460;SDS011;6757;52.258;12.840;2023-07-29T02:10:41;7.35;;;2.83;;
7460;SDS011;6757;52.258;12.840;2023-07-29T02:13:11;4.78;;;2.13;;
7460;SDS011;6757;52.258;12.840;2023-07-29T02:15:38;3.05;;;1.85;;
7460;SDS011;6757;52.258;12.840;2023-07-29T02:18:05;3.38;;;1.80;;
7460;SDS011;6757;52.258;12.840;2023-07-29T02:20:32;4.40;;;2.05;;
7460;SDS011;6757;52.258;12.840;2023-07-29T02:22:59;5.47;;;2.10;;
7460;SDS011;6757;52.258;12.840;2023-07-29T02:25:26;5.90;;;2.30;;
7460;SDS011;6757;52.258;12.840;2023-07-29T02:27:53;7.80;;;2.75;;
7460;SDS011;6757;52.258;12.840;2023-07-29T02:30:21;6.82;;;2.42;;
7460;SDS011;6757;52.258;12.840;2023-07-29T02:32:48;6.63;;;2.55;;
7460;SDS011;6757;52.258;12.840;2023-07-29T02:35:15;6.13;;;2.55;;
7460;SDS011;6757;52.258;12.840;2023-07-29T02:37:42;8.30;;;2.90;;
7460;SDS011;6757;52.258;12.840;2023-07-29T02:40:10;4.22;;;2.40;;
7460;SDS011;6757;52.258;12.840;2023-07-29T02:42:37;7.13;;;2.78;;
7460;SDS011;6757;52.258;12.840;2023-07-29T02:45:05;4.47;;;2.17;;
7460;SDS011;6757;52.258;12.840;2023-07-29T02:47:36;6.80;;;2.50;;
7460;SDS011;6757;52.258;12.840;2023-07-29T02:50:03;5.75;;;2.63;;
7460;SDS011;6757;52.258;12.840;2023-07-29T02:52:31;5.70;;;2.75;;
7460;SDS011;6757;52.258;12.840;2023-07-29T02:54:58;6.30;;;2.75;;
7460;SDS011;6757;52.258;12.840;2023-07-29T02:57:25;8.75;;;3.40;;
7460;SDS011;6757;52.258;12.840;2023-07-29T02:59:52;7.05;;;3.05;;
7460;SDS011;6757;52.258;12.840;2023-07-29T03:02:19;6.45;;;2.47;;
7460;SDS011;6757;52.258;12.840;2023-07-29T03:04:48;8.38;;;2.97;;
7460;SDS011;6757;52.258;12.840;2023-07-29T03:07:15;6.75;;;2.58;;
7460;SDS011;6757;52.258;12.840;2023-07-29T03:09:42;7.88;;;3.40;;
7460;SDS011;6757;52.258;12.840;2023-07-29T03:12:10;4.60;;;2.22;;
7460;SDS011;6757;52.258;12.840;2023-07-29T03:14:37;6.63;;;2.58;;
7460;SDS011;6757;52.258;12.840;2023-07-29T03:17:04;8.15;;;2.58;;
7460;SDS011;6757;52.258;12.840;2023-07-29T03:19:31;7.57;;;2.72;;
7460;SDS011;6757;52.258;12.840;2023-07-29T03:22:00;4.40;;;2.50;;
7460;SDS011;6757;52.258;12.840;2023-07-29T03:24:26;7.70;;;2.55;;
7460;SDS011;6757;52.258;12.840;2023-07-29T03:26:53;5.68;;;2.28;;
7460;SDS011;6757;52.258;12.840;2023-07-29T03:29:20;6.18;;;2.28;;
7460;SDS011;6757;52.258;12.840;2023-07-29T03:31:47;5.28;;;2.30;;
7460;SDS011;6757;52.258;12.840;2023-07-29T03:34:14;4.68;;;2.22;;
7460;SDS011;6757;52.258;12.840;2023-07-29T03:36:41;6.75;;;2.63;;
7460;SDS011;6757;52.258;12.840;2023-07-29T03:39:12;7.43;;;2.65;;
7460;SDS011;6757;52.258;12.840;2023-07-29T03:41:39;4.57;;;2.10;;
7460;SDS011;6757;52.258;12.840;2023-07-29T03:44:06;3.45;;;2.20;;
7460;SDS011;6757;52.258;12.840;2023-07-29T03:46:33;5.32;;;2.40;;
7460;SDS011;6757;52.258;12.840;2023-07-29T03:49:00;4.43;;;2.17;;
7460;SDS011;6757;52.258;12.840;2023-07-29T03:51:27;5.35;;;2.33;;
7460;SDS011;6757;52.258;12.840;2023-07-29T03:53:54;5.70;;;2.28;;
7460;SDS011;6757;52.258;12.840;2023-07-29T03:56:23;5.43;;;2.50;;
7460;SDS011;6757;52.258;12.840;2023-07-29T03:58:50;6.15;;;2.45;;
7460;SDS011;6757;52.258;12.840;2023-07-29T04:01:18;4.60;;;2.05;;
7460;SDS011;6757;52.258;12.840;2023-07-29T04:03:45;5.07;;;2.42;;
7460;SDS011;6757;52.258;12.840;2023-07-29T04:06:12;6.00;;;2.38;;
7460;SDS011;6757;52.258;12.840;2023-07-29T04:08:39;4.15;;;2.42;;
7460;SDS011;6757;52.258;12.840;2023-07-29T04:11:07;3.65;;;2.13;;
7460;SDS011;6757;52.258;12.840;2023-07-29T04:13:35;5.30;;;2.30;;
7460;SDS011;6757;52.258;12.840;2023-07-29T04:16:03;4.40;;;2.20;;
7460;SDS011;6757;52.258;12.840;2023-07-29T04:18:30;4.45;;;2.10;;
7460;SDS011;6757;52.258;12.840;2023-07-29T04:20:57;6.85;;;2.85;;
7460;SDS011;6757;52.258;12.840;2023-07-29T04:23:24;4.30;;;1.98;;
7460;SDS011;6757;52.258;12.840;2023-07-29T04:25:51;7.30;;;2.33;;
7460;SDS011;6757;52.258;12.840;2023-07-29T04:28:18;6.05;;;2.17;;
7460;SDS011;6757;52.258;12.840;2023-07-29T04:30:47;6.40;;;2.65;;
7460;SDS011;6757;52.258;12.840;2023-07-29T04:33:14;5.82;;;2.50;;
7460;SDS011;6757;52.258;12.840;2023-07-29T04:35:40;3.65;;;2.17;;
7460;SDS011;6757;52.258;12.840;2023-07-29T04:38:07;3.20;;;2.20;;
7460;SDS011;6757;52.258;12.840;2023-07-29T04:40:34;4.38;;;1.77;;
7460;SDS011;6757;52.258;12.840;2023-07-29T04:43:01;6.00;;;2.40;;
7460;SDS011;6757;52.258;12.840;2023-07-29T04:45:28;4.22;;;2.03;;
7460;SDS011;6757;52.258;12.840;2023-07-29T04:47:58;4.82;;;2.15;;
7460;SDS011;6757;52.258;12.840;2023-07-29T04:50:25;3.78;;;1.75;;
7460;SDS011;6757;52.258;12.840;2023-07-29T04:52:52;4.57;;;2.17;;
7460;SDS011;6757;52.258;12.840;2023-07-29T04:55:19;4.13;;;2.20;;
7460;SDS011;6757;52.258;12.840;2023-07-29T04:57:46;5.43;;;2.10;;
7460;SDS011;6757;52.258;12.840;2023-07-29T05:00:13;4.70;;;2.30;;
7460;SDS011;6757;52.258;12.840;2023-07-29T05:02:40;4.63;;;2.20;;
7460;SDS011;6757;52.258;12.840;2023-07-29T05:05:08;5.63;;;2.13;;
7460;SDS011;6757;52.258;12.840;2023-07-29T05:07:35;6.20;;;2.50;;
7460;SDS011;6757;52.258;12.840;2023-07-29T05:10:02;5.18;;;2.30;;
7460;SDS011;6757;52.258;12.840;2023-07-29T05:12:30;5.97;;;2.40;;
7460;SDS011;6757;52.258;12.840;2023-07-29T05:14:58;5.68;;;2.53;;
7460;SDS011;6757;52.258;12.840;2023-07-29T05:17:25;6.03;;;2.38;;
7460;SDS011;6757;52.258;12.840;2023-07-29T05:19:52;7.53;;;2.70;;
7460;SDS011;6757;52.258;12.840;2023-07-29T05:22:20;5.18;;;2.42;;
7460;SDS011;6757;52.258;12.840;2023-07-29T05:24:47;5.70;;;2.15;;
7460;SDS011;6757;52.258;12.840;2023-07-29T05:27:14;5.38;;;2.38;;
7460;SDS011;6757;52.258;12.840;2023-07-29T05:29:41;4.15;;;2.08;;
7460;SDS011;6757;52.258;12.840;2023-07-29T05:32:08;4.85;;;2.30;;
7460;SDS011;6757;52.258;12.840;2023-07-29T05:34:35;4.10;;;2.17;;
7460;SDS011;6757;52.258;12.840;2023-07-29T05:37:02;5.07;;;2.20;;
7460;SDS011;6757;52.258;12.840;2023-07-29T05:39:31;5.18;;;2.17;;
7460;SDS011;6757;52.258;12.840;2023-07-29T05:41:58;3.55;;;2.05;;
7460;SDS011;6757;52.258;12.840;2023-07-29T05:44:27;4.93;;;2.35;;
7460;SDS011;6757;52.258;12.840;2023-07-29T05:46:55;5.93;;;2.42;;
7460;SDS011;6757;52.258;12.840;2023-07-29T05:49:22;5.65;;;2.63;;
7460;SDS011;6757;52.258;12.840;2023-07-29T05:51:49;4.72;;;2.45;;
7460;SDS011;6757;52.258;12.840;2023-07-29T05:54:18;5.05;;;2.30;;
7460;SDS011;6757;52.258;12.840;2023-07-29T05:56:46;6.38;;;2.53;;
7460;SDS011;6757;52.258;12.840;2023-07-29T05:59:13;4.97;;;2.40;;
7460;SDS011;6757;52.258;12.840;2023-07-29T06:01:40;5.78;;;2.58;;
7460;SDS011;6757;52.258;12.840;2023-07-29T06:04:07;7.85;;;2.85;;
7460;SDS011;6757;52.258;12.840;2023-07-29T06:06:34;6.55;;;2.80;;
7460;SDS011;6757;52.258;12.840;2023-07-29T06:09:01;4.55;;;2.65;;
7460;SDS011;6757;52.258;12.840;2023-07-29T06:11:28;5.90;;;2.83;;
7460;SDS011;6757;52.258;12.840;2023-07-29T06:13:56;5.85;;;2.70;;
7460;SDS011;6757;52.258;12.840;2023-07-29T06:16:23;5.95;;;2.85;;
7460;SDS011;6757;52.258;12.840;2023-07-29T06:18:50;6.00;;;2.47;;
7460;SDS011;6757;52.258;12.840;2023-07-29T06:21:17;7.07;;;3.03;;
7460;SDS011;6757;52.258;12.840;2023-07-29T06:23:45;5.60;;;2.70;;
7460;SDS011;6757;52.258;12.840;2023-07-29T06:26:12;6.53;;;2.95;;
7460;SDS011;6757;52.258;12.840;2023-07-29T06:28:39;4.03;;;2.42;;
7460;SDS011;6757;52.258;12.840;2023-07-29T06:31:07;6.78;;;2.78;;
7460;SDS011;6757;52.258;12.840;2023-07-29T06:33:34;5.45;;;2.70;;
7460;SDS011;6757;52.258;12.840;2023-07-29T06:36:01;5.70;;;2.78;;
7460;SDS011;6757;52.258;12.840;2023-07-29T06:38:28;5.25;;;2.58;;
7460;SDS011;6757;52.258;12.840;2023-07-29T06:40:55;4.13;;;2.30;;
7460;SDS011;6757;52.258;12.840;2023-07-29T06:43:22;7.00;;;2.60;;
7460;SDS011;6757;52.258;12.840;2023-07-29T06:45:49;4.68;;;2.35;;
7460;SDS011;6757;52.258;12.840;2023-07-29T06:48:18;6.20;;;2.40;;
7460;SDS011;6757;52.258;12.840;2023-07-29T06:50:45;4.88;;;2.30;;
7460;SDS011;6757;52.258;12.840;2023-07-29T06:53:12;6.20;;;3.03;;
7460;SDS011;6757;52.258;12.840;2023-07-29T06:55:39;7.18;;;2.72;;
7460;SDS011;6757;52.258;12.840;2023-07-29T06:58:06;4.35;;;2.40;;
7460;SDS011;6757;52.258;12.840;2023-07-29T07:00:33;4.53;;;2.55;;
7460;SDS011;6757;52.258;12.840;2023-07-29T07:03:01;6.32;;;2.80;;
7460;SDS011;6757;52.258;12.840;2023-07-29T07:05:29;4.85;;;2.50;;
7460;SDS011;6757;52.258;12.840;2023-07-29T07:07:56;5.55;;;2.63;;
7460;SDS011;6757;52.258;12.840;2023-07-29T07:10:24;5.45;;;2.67;;
7460;SDS011;6757;52.258;12.840;2023-07-29T07:12:51;4.53;;;2.30;;
7460;SDS011;6757;52.258;12.840;2023-07-29T07:15:18;6.20;;;2.20;;
7460;SDS011;6757;52.258;12.840;2023-07-29T07:17:45;4.05;;;2.40;;
7460;SDS011;6757;52.258;12.840;2023-07-29T07:20:12;3.80;;;2.00;;
7460;SDS011;6757;52.258;12.840;2023-07-29T07:22:40;4.60;;;2.17;;
7460;SDS011;6757;52.258;12.840;2023-07-29T07:25:07;3.85;;;2.10;;
7460;SDS011;6757;52.258;12.840;2023-07-29T07:27:34;4.30;;;2.10;;
7460;SDS011;6757;52.258;12.840;2023-07-29T07:30:02;5.35;;;2.22;;
7460;SDS011;6757;52.258;12.840;2023-07-29T07:32:29;4.65;;;2.20;;
7460;SDS011;6757;52.258;12.840;2023-07-29T07:34:56;4.88;;;2.33;;
7460;SDS011;6757;52.258;12.840;2023-07-29T07:37:23;3.13;;;2.35;;
7460;SDS011;6757;52.258;12.840;2023-07-29T07:39:52;3.97;;;2.13;;
7460;SDS011;6757;52.258;12.840;2023-07-29T07:42:19;5.20;;;2.30;;
7460;SDS011;6757;52.258;12.840;2023-07-29T07:44:46;4.47;;;2.53;;
7460;SDS011;6757;52.258;12.840;2023-07-29T07:47:12;4.70;;;2.30;;
7460;SDS011;6757;52.258;12.840;2023-07-29T07:49:39;4.88;;;2.60;;
7460;SDS011;6757;52.258;12.840;2023-07-29T07:52:06;5.15;;;2.50;;
7460;SDS011;6757;52.258;12.840;2023-07-29T07:54:33;7.03;;;2.53;;
7460;SDS011;6757;52.258;12.840;2023-07-29T07:57:02;4.93;;;2.65;;
7460;SDS011;6757;52.258;12.840;2023-07-29T07:59:29;3.75;;;2.33;;
7460;SDS011;6757;52.258;12.840;2023-07-29T08:01:56;5.20;;;2.60;;
7460;SDS011;6757;52.258;12.840;2023-07-29T08:04:23;4.45;;;2.67;;
7460;SDS011;6757;52.258;12.840;2023-07-29T08:06:50;3.60;;;2.40;;
7460;SDS011;6757;52.258;12.840;2023-07-29T08:09:17;6.60;;;2.67;;
7460;SDS011;6757;52.258;12.840;2023-07-29T08:11:44;4.80;;;2.78;;
7460;SDS011;6757;52.258;12.840;2023-07-29T08:14:12;2.92;;;2.08;;
7460;SDS011;6757;52.258;12.840;2023-07-29T08:16:39;4.00;;;2.13;;
7460;SDS011;6757;52.258;12.840;2023-07-29T08:19:06;3.05;;;2.10;;
7460;SDS011;6757;52.258;12.840;2023-07-29T08:21:34;4.07;;;2.25;;
7460;SDS011;6757;52.258;12.840;2023-07-29T08:24:01;4.68;;;2.50;;
7460;SDS011;6757;52.258;12.840;2023-07-29T08:26:29;2.75;;;2.05;;
7460;SDS011;6757;52.258;12.840;2023-07-29T08:28:56;6.45;;;2.50;;
7460;SDS011;6757;52.258;12.840;2023-07-29T08:31:24;3.65;;;2.47;;
7460;SDS011;6757;52.258;12.840;2023-07-29T08:33:51;4.40;;;2.20;;
7460;SDS011;6757;52.258;12.840;2023-07-29T08:36:18;1.90;;;1.80;;
7460;SDS011;6757;52.258;12.840;2023-07-29T08:38:45;3.92;;;2.35;;
7460;SDS011;6757;52.258;12.840;2023-07-29T08:41:13;2.97;;;2.00;;
7460;SDS011;6757;52.258;12.840;2023-07-29T08:43:43;3.10;;;2.20;;
7460;SDS011;6757;52.258;12.840;2023-07-29T08:46:18;3.15;;;2.00;;
7460;SDS011;6757;52.258;12.840;2023-07-29T08:48:47;3.00;;;1.92;;
7460;SDS011;6757;52.258;12.840;2023-07-29T08:51:15;4.10;;;2.33;;
7460;SDS011;6757;52.258;12.840;2023-07-29T08:53:43;4.63;;;2.40;;
7460;SDS011;6757;52.258;12.840;2023-07-29T08:56:10;4.40;;;2.28;;
7460;SDS011;6757;52.258;12.840;2023-07-29T08:58:38;4.03;;;2.50;;
7460;SDS011;6757;52.258;12.840;2023-07-29T09:01:06;4.10;;;2.30;;
7460;SDS011;6757;52.258;12.840;2023-07-29T09:03:32;6.10;;;2.70;;
7460;SDS011;6757;52.258;12.840;2023-07-29T09:06:01;3.40;;;2.20;;
7460;SDS011;6757;52.258;12.840;2023-07-29T09:08:29;4.60;;;2.53;;
7460;SDS011;6757;52.258;12.840;2023-07-29T09:10:56;4.25;;;2.10;;
7460;SDS011;6757;52.258;12.840;2023-07-29T09:13:24;4.72;;;2.30;;
7460;SDS011;6757;52.258;12.840;2023-07-29T09:15:53;3.65;;;2.30;;
7460;SDS011;6757;52.258;12.840;2023-07-29T09:18:21;5.32;;;2.45;;
7460;SDS011;6757;52.258;12.840;2023-07-29T09:20:49;4.60;;;2.17;;
7460;SDS011;6757;52.258;12.840;2023-07-29T09:23:18;3.25;;;2.33;;
7460;SDS011;6757;52.258;12.840;2023-07-29T09:25:45;3.75;;;2.25;;
7460;SDS011;6757;52.258;12.840;2023-07-29T09:28:13;3.05;;;1.98;;
7460;SDS011;6757;52.258;12.840;2023-07-29T09:30:42;3.72;;;2.10;;
7460;SDS011;6757;52.258;12.840;2023-07-29T09:33:13;3.83;;;2.35;;
7460;SDS011;6757;52.258;12.840;2023-07-29T09:35:40;2.50;;;2.08;;
7460;SDS011;6757;52.258;12.840;2023-07-29T09:38:08;3.47;;;1.98;;
7460;SDS011;6757;52.258;12.840;2023-07-29T09:40:41;2.58;;;2.10;;
7460;SDS011;6757;52.258;12.840;2023-07-29T09:43:10;3.53;;;2.17;;
7460;SDS011;6757;52.258;12.840;2023-07-29T09:45:37;7.15;;;2.70;;
7460;SDS011;6757;52.258;12.840;2023-07-29T09:48:04;4.13;;;2.20;;
7460;SDS011;6757;52.258;12.840;2023-07-29T09:50:34;4.35;;;2.38;;
7460;SDS011;6757;52.258;12.840;2023-07-29T09:53:02;2.15;;;1.92;;
7460;SDS011;6757;52.258;12.840;2023-07-29T09:55:32;4.38;;;2.50;;
7460;SDS011;6757;52.258;12.840;2023-07-29T09:58:01;2.15;;;1.95;;
7460;SDS011;6757;52.258;12.840;2023-07-29T10:00:32;4.38;;;2.33;;
7460;SDS011;6757;52.258;12.840;2023-07-29T10:02:59;3.42;;;2.17;;
7460;SDS011;6757;52.258;12.840;2023-07-29T10:05:27;4.78;;;2.20;;
7460;SDS011;6757;52.258;12.840;2023-07-29T10:07:55;3.05;;;2.42;;
7460;SDS011;6757;52.258;12.840;2023-07-29T10:10:23;4.30;;;2.42;;
7460;SDS011;6757;52.258;12.840;2023-07-29T10:12:50;3.85;;;2.17;;
7460;SDS011;6757;52.258;12.840;2023-07-29T10:15:19;4.45;;;2.70;;
7460;SDS011;6757;52.258;12.840;2023-07-29T10:17:47;3.15;;;2.28;;
7460;SDS011;6757;52.258;12.840;2023-07-29T10:20:15;3.90;;;2.30;;
7460;SDS011;6757;52.258;12.840;2023-07-29T10:22:42;3.78;;;2.38;;
7460;SDS011;6757;52.258;12.840;2023-07-29T10:25:15;5.03;;;2.20;;
7460;SDS011;6757;52.258;12.840;2023-07-29T10:27:46;5.80;;;2.40;;
7460;SDS011;6757;52.258;12.840;2023-07-29T10:30:20;2.75;;;2.05;;
7460;SDS011;6757;52.258;12.840;2023-07-29T10:32:47;4.22;;;2.30;;
7460;SDS011;6757;52.258;12.840;2023-07-29T10:35:16;3.50;;;2.20;;
7460;SDS011;6757;52.258;12.840;2023-07-29T10:37:44;2.88;;;2.33;;
7460;SDS011;6757;52.258;12.840;2023-07-29T10:40:15;5.97;;;2.80;;
7460;SDS011;6757;52.258;12.840;2023-07-29T10:45:36;3.72;;;2.17;;
7460;SDS011;6757;52.258;12.840;2023-07-29T10:48:05;3.97;;;2.47;;
7460;SDS011;6757;52.258;12.840;2023-07-29T10:50:34;3.50;;;2.28;;
7460;SDS011;6757;52.258;12.840;2023-07-29T10:53:01;3.83;;;2.15;;
7460;SDS011;6757;52.258;12.840;2023-07-29T10:55:32;2.83;;;2.00;;
7460;SDS011;6757;52.258;12.840;2023-07-29T10:58:05;2.83;;;1.88;;
7460;SDS011;6757;52.258;12.840;2023-07-29T11:00:40;3.85;;;2.33;;
7460;SDS011;6757;52.258;12.840;2023-07-29T11:03:09;3.38;;;2.05;;
7460;SDS011;6757;52.258;12.840;2023-07-29T11:05:43;4.40;;;2.20;;
7460;SDS011;6757;52.258;12.840;2023-07-29T11:08:22;3.92;;;2.22;;
7460;SDS011;6757;52.258;12.840;2023-07-29T11:13:41;3.80;;;2.35;;
7460;SDS011;6757;52.258;12.840;2023-07-29T11:16:09;6.25;;;2.22;;
7460;SDS011;6757;52.258;12.840;2023-07-29T11:18:42;3.67;;;1.60;;
7460;SDS011;6757;52.258;12.840;2023-07-29T11:21:11;0.85;;;0.85;;
7460;SDS011;6757;52.258;12.840;2023-07-29T11:23:40;1.70;;;1.05;;
7460;SDS011;6757;52.258;12.840;2023-07-29T11:26:07;1.35;;;1.23;;
7460;SDS011;6757;52.258;12.840;2023-07-29T11:28:37;1.40;;;0.98;;
7460;SDS011;6757;52.258;12.840;2023-07-29T11:31:05;1.00;;;0.88;;
7460;SDS011;6757;52.258;12.840;2023-07-29T11:33:33;2.05;;;1.23;;
7460;SDS011;6757;52.258;12.840;2023-07-29T11:36:00;2.38;;;1.10;;
7460;SDS011;6757;52.258;12.840;2023-07-29T11:38:27;1.20;;;1.08;;
7460;SDS011;6757;52.258;12.840;2023-07-29T11:40:58;1.45;;;1.05;;
7460;SDS011;6757;52.258;12.840;2023-07-29T11:43:28;1.60;;;1.13;;
7460;SDS011;6757;52.258;12.840;2023-07-29T11:45:55;0.75;;;0.75;;
7460;SDS011;6757;52.258;12.840;2023-07-29T11:48:28;1.25;;;0.95;;
7460;SDS011;6757;52.258;12.840;2023-07-29T11:51:00;2.38;;;1.25;;
7460;SDS011;6757;52.258;12.840;2023-07-29T11:53:28;1.10;;;0.82;;
7460;SDS011;6757;52.258;12.840;2023-07-29T11:55:56;2.35;;;1.50;;
7460;SDS011;6757;52.258;12.840;2023-07-29T11:58:23;1.30;;;1.20;;
7460;SDS011;6757;52.258;12.840;2023-07-29T12:00:51;1.23;;;1.05;;
7460;SDS011;6757;52.258;12.840;2023-07-29T12:03:19;3.30;;;1.58;;
7460;SDS011;6757;52.258;12.840;2023-07-29T12:05:46;1.75;;;1.35;;
7460;SDS011;6757;52.258;12.840;2023-07-29T12:08:15;1.60;;;1.08;;
7460;SDS011;6757;52.258;12.840;2023-07-29T12:10:42;1.92;;;1.30;;
7460;SDS011;6757;52.258;12.840;2023-07-29T12:13:09;2.72;;;1.42;;
7460;SDS011;6757;52.258;12.840;2023-07-29T12:15:37;2.72;;;1.48;;
7460;SDS011;6757;52.258;12.840;2023-07-29T12:18:05;2.17;;;1.55;;
7460;SDS011;6757;52.258;12.840;2023-07-29T12:20:32;2.80;;;1.25;;
7460;SDS011;6757;52.258;12.840;2023-07-29T12:23:00;1.35;;;1.25;;
7460;SDS011;6757;52.258;12.840;2023-07-29T12:25:29;1.17;;;1.17;;
7460;SDS011;6757;52.258;12.840;2023-07-29T12:27:56;1.45;;;1.10;;
7460;SDS011;6757;52.258;12.840;2023-07-29T12:30:29;1.65;;;1.40;;
7460;SDS011;6757;52.258;12.840;2023-07-29T12:32:56;1.15;;;1.05;;
7460;SDS011;6757;52.258;12.840;2023-07-29T12:35:24;1.45;;;0.88;;
7460;SDS011;6757;52.258;12.840;2023-07-29T12:38:00;1.42;;;1.27;;
7460;SDS011;6757;52.258;12.840;2023-07-29T12:40:28;0.95;;;0.73;;
7460;SDS011;6757;52.258;12.840;2023-07-29T12:42:55;1.42;;;1.25;;
7460;SDS011;6757;52.258;12.840;2023-07-29T12:45:23;1.67;;;1.20;;
7460;SDS011;6757;52.258;12.840;2023-07-29T12:47:52;1.55;;;1.38;;
7460;SDS011;6757;52.258;12.840;2023-07-29T12:50:19;2.67;;;1.40;;
7460;SDS011;6757;52.258;12.840;2023-07-29T12:52:46;2.58;;;1.38;;
7460;SDS011;6757;52.258;12.840;2023-07-29T12:55:13;1.52;;;1.08;;
7460;SDS011;6757;52.258;12.840;2023-07-29T12:57:42;1.42;;;1.23;;
7460;SDS011;6757;52.258;12.840;2023-07-29T13:00:09;2.22;;;1.27;;
7460;SDS011;6757;52.258;12.840;2023-07-29T13:02:38;1.15;;;1.05;;
7460;SDS011;6757;52.258;12.840;2023-07-29T13:05:04;1.83;;;1.70;;
7460;SDS011;6757;52.258;12.840;2023-07-29T13:07:35;1.63;;;1.52;;
7460;SDS011;6757;52.258;12.840;2023-07-29T13:10:02;1.75;;;1.65;;
7460;SDS011;6757;52.258;12.840;2023-07-29T13:12:29;1.45;;;1.35;;
7460;SDS011;6757;52.258;12.840;2023-07-29T13:14:58;3.08;;;1.95;;
7460;SDS011;6757;52.258;12.840;2023-07-29T13:17:27;2.08;;;1.77;;
7460;SDS011;6757;52.258;12.840;2023-07-29T13:20:03;1.85;;;1.75;;
7460;SDS011;6757;52.258;12.840;2023-07-29T13:22:32;2.65;;;1.95;;
7460;SDS011;6757;52.258;12.840;2023-07-29T13:24:58;2.17;;;1.75;;
7460;SDS011;6757;52.258;12.840;2023-07-29T13:27:29;2.78;;;1.98;;
7460;SDS011;6757;52.258;12.840;2023-07-29T13:32:38;1.70;;;1.58;;
7460;SDS011;6757;52.258;12.840;2023-07-29T13:35:06;1.80;;;1.70;;
7460;SDS011;6757;52.258;12.840;2023-07-29T13:37:38;1.98;;;1.75;;
7460;SDS011;6757;52.258;12.840;2023-07-29T13:40:16;2.63;;;1.80;;
7460;SDS011;6757;52.258;12.840;2023-07-29T13:42:45;1.90;;;1.73;;
7460;SDS011;6757;52.258;12.840;2023-07-29T13:45:27;2.78;;;1.60;;
7460;SDS011;6757;52.258;12.840;2023-07-29T13:48:00;2.15;;;1.80;;
7460;SDS011;6757;52.258;12.840;2023-07-29T13:50:32;3.33;;;1.80;;
7460;SDS011;6757;52.258;12.840;2023-07-29T13:53:09;2.35;;;1.77;;
7460;SDS011;6757;52.258;12.840;2023-07-29T13:55:37;4.10;;;1.70;;
7460;SDS011;6757;52.258;12.840;2023-07-29T13:58:04;2.78;;;1.75;;
7460;SDS011;6757;52.258;12.840;2023-07-29T14:00:32;2.10;;;1.90;;
7460;SDS011;6757;52.258;12.840;2023-07-29T14:02:59;5.43;;;2.00;;
7460;SDS011;6757;52.258;12.840;2023-07-29T14:05:26;3.00;;;2.00;;
7460;SDS011;6757;52.258;12.840;2023-07-29T14:07:53;2.00;;;1.80;;
7460;SDS011;6757;52.258;12.840;2023-07-29T14:10:20;2.97;;;1.63;;
7460;SDS011;6757;52.258;12.840;2023-07-29T14:12:47;1.80;;;1.65;;
7460;SDS011;6757;52.258;12.840;2023-07-29T14:15:14;2.50;;;1.63;;
7460;SDS011;6757;52.258;12.840;2023-07-29T14:17:42;2.15;;;1.92;;
7460;SDS011;6757;52.258;12.840;2023-07-29T14:20:09;3.40;;;1.90;;
7460;SDS011;6757;52.258;12.840;2023-07-29T14:22:37;4.20;;;1.88;;
7460;SDS011;6757;52.258;12.840;2023-07-29T14:25:05;1.88;;;1.77;;
7460;SDS011;6757;52.258;12.840;2023-07-29T14:27:33;1.88;;;1.77;;
7460;SDS011;6757;52.258;12.840;2023-07-29T14:30:00;1.65;;;1.55;;
7460;SDS011;6757;52.258;12.840;2023-07-29T14:32:27;2.35;;;1.90;;
7460;SDS011;6757;52.258;12.840;2023-07-29T14:34:55;1.67;;;1.58;;
7460;SDS011;6757;52.258;12.840;2023-07-29T14:37:22;3.08;;;1.92;;
7460;SDS011;6757;52.258;12.840;2023-07-29T14:39:49;2.92;;;1.88;;
7460;SDS011;6757;52.258;12.840;2023-07-29T14:42:16;3.10;;;1.98;;
7460;SDS011;6757;52.258;12.840;2023-07-29T14:44:43;2.50;;;1.80;;
7460;SDS011;6757;52.258;12.840;2023-07-29T14:47:10;3.35;;;2.00;;
7460;SDS011;6757;52.258;12.840;2023-07-29T14:49:37;1.90;;;1.80;;
7460;SDS011;6757;52.258;12.840;2023-07-29T14:52:06;3.83;;;1.90;;
7460;SDS011;6757;52.258;12.840;2023-07-29T14:54:33;1.85;;;1.48;;
7460;SDS011;6757;52.258;12.840;2023-07-29T14:57:00;2.00;;;1.80;;
7460;SDS011;6757;52.258;12.840;2023-07-29T14:59:27;2.53;;;1.75;;
7460;SDS011;6757;52.258;12.840;2023-07-29T15:01:55;3.65;;;1.80;;
7460;SDS011;6757;52.258;12.840;2023-07-29T15:04:22;5.60;;;2.08;;
7460;SDS011;6757;52.258;12.840;2023-07-29T15:06:49;3.20;;;2.13;;
7460;SDS011;6757;52.258;12.840;2023-07-29T15:09:17;2.30;;;2.10;;
7460;SDS011;6757;52.258;12.840;2023-07-29T15:11:44;2.67;;;2.03;;
7460;SDS011;6757;52.258;12.840;2023-07-29T15:14:11;3.05;;;2.08;;
7460;SDS011;6757;52.258;12.840;2023-07-29T15:16:38;2.53;;;1.75;;